Hassler — WTEK — position and weather

sailwx.info

Track history (hours):
 
Tides and Currents Weather Stations Pressure Air Temp Water Temp Dewpoint Dewpoint Depression Visibility Wind Speed Wind Dir Waves Ship Positions

Oceanographic research ship Hassler (USA)

Last reported at 2016-Dec-09 01:46 UTC. Time now 2016-Dec-09 04:04 UTC.
Position N 43°00' W 070°42'.

Length 37 m; draft 3.8 m.

Type: . MMSI: 369970091.

Wind from 270 at 11 knots

Barometer 1006.1 mb
Air temperature 2.6 ° C

Date/timePositionNaut miles runAvg speedWind from/ knotsBaromVisibWave heightAir tempDewpointWater temp
2016-Dec-09 01:46N 43°00' W 070°42'0 0.0 270 / 111006.1 2.6
2016-Dec-09 00:46N 43°00' W 070°42'0 0.0 270 / 91005.8 3.1
2016-Dec-08 22:46N 43°00' W 070°42'0 0.0 270 / 111005.2 4.1
2016-Dec-08 21:46N 43°00' W 070°42'0 0.0 260 / 71005.2 4.7
2016-Dec-08 20:46N 43°00' W 070°42'0 0.0 240 / 81005.2 5.3
2016-Dec-08 19:46N 43°00' W 070°42'0 0.0 270 / 61005.2 5.3
2016-Dec-08 18:46N 43°00' W 070°42'0 0.0 270 / 71005.2 5.5
2016-Dec-08 17:46N 43°00' W 070°42'0 0.0 270 / 51005.8 5.5
2016-Dec-08 16:46N 43°00' W 070°42'0 0.0 250 / 41006.9 5.3
2016-Dec-08 15:46N 43°00' W 070°42'0 0.0 190 / 61008.4 5.0
2016-Dec-08 14:46N 43°00' W 070°42'0 0.0 270 / 31009.7 5.3
2016-Dec-08 13:46N 43°00' W 070°42'0 0.0 290 / 61010.2 2.3
2016-Dec-08 12:47N 43°00' W 070°42'0 0.0 250 / 51010.0 1.6
2016-Dec-08 11:47N 43°00' W 070°42'0 0.0 250 / 31010.5 1.7
2016-Dec-08 10:47N 43°00' W 070°42'0 0.0 260 / 31010.8 1.9
2016-Dec-08 09:47N 43°00' W 070°42'0 0.0 230 / 41010.8 1.5
2016-Dec-08 08:47N 43°00' W 070°42'0 0.0 260 / 51010.8 1.4
2016-Dec-08 07:47N 43°00' W 070°42'0 0.0 260 / 61011.2 1.2
2016-Dec-08 06:47N 43°00' W 070°42'0 0.0 270 / 41011.6 1.0
2016-Dec-08 05:47N 43°00' W 070°42'0 0.0 240 / 71011.9 0.9
2016-Dec-08 04:47N 43°00' W 070°42'0 0.0 240 / 31011.5 1.3
2016-Dec-08 03:47N 43°00' W 070°42'0 0.0 200 / 21012.6 1.7
2016-Dec-08 02:47N 43°00' W 070°42'0 0.0 260 / 31013.1 2.0
2016-Dec-08 01:47N 43°00' W 070°42'0 0.0 280 / 91012.9 2.1
2016-Dec-08 00:47N 43°00' W 070°42'0 0.0 260 / 21012.9 2.5
2016-Dec-07 22:48N 43°00' W 070°42'0 0.0 260 / 31012.6 2.6
2016-Dec-07 21:48N 43°00' W 070°42'0 0.0 270 / 41012.8 2.9
2016-Dec-07 20:48N 43°00' W 070°42'0 0.0 250 / 31012.0 3.0
2016-Dec-07 19:48N 43°00' W 070°42'0 0.0 310 / 21011.7 2.9
2016-Dec-07 18:48N 43°00' W 070°42'0 0.0 290 / 11011.6 2.4
2016-Dec-07 17:48N 43°00' W 070°42'0 0.0 340 / 21012.0 1.7
2016-Dec-07 16:48N 43°00' W 070°42'0 0.0 330 / 31012.5 1.3
2016-Dec-07 15:48N 43°00' W 070°42'0 0.0 310 / 41013.3 0.7
2016-Dec-07 14:48N 43°00' W 070°42'0 0.0 300 / 61013.7 -0.0
2016-Dec-07 13:48N 43°00' W 070°42'0 0.0 310 / 61013.6 -0.5
2016-Dec-07 12:49N 43°00' W 070°42'0 0.0 310 / 71012.9 -0.6
2016-Dec-07 11:49N 43°00' W 070°42'0 0.0 340 / 41012.0 0.5
2016-Dec-07 10:49N 43°00' W 070°42'0 0.0 360 / 81011.8 1.1
2016-Dec-07 09:49N 43°00' W 070°42'0 0.0 360 / 81011.5 1.5
2016-Dec-07 08:49N 43°00' W 070°42'0 0.0 010 / 91011.2 1.9
2016-Dec-07 07:50N 43°00' W 070°42'0 0.0 350 / 91012.1 2.1
2016-Dec-07 06:50N 43°00' W 070°42'0 0.0 360 / 91012.8 2.3
2016-Dec-07 05:50N 43°00' W 070°42'0 0.0 020 / 91012.3 2.2
2016-Dec-07 03:51N 43°00' W 070°42'0 0.0 340 / 41014.0 2.0
2016-Dec-07 02:51N 43°00' W 070°42'0 0.0 340 / 51014.9 2.3
2016-Dec-07 01:51N 43°00' W 070°42'0 0.0 330 / 31014.8 2.8
2016-Dec-07 00:51N 43°00' W 070°42'0 0.0 360 / 61014.4 3.5
2016-Dec-06 22:51N 43°00' W 070°42'0 0.0 030 / 51014.4 4.0
2016-Dec-06 21:51N 43°00' W 070°42'0 0.0 030 / 51014.4 3.7
2016-Dec-06 20:51N 43°00' W 070°42'0 0.0 080 / 41014.9 4.1
2016-Dec-06 19:51N 43°00' W 070°42'0 0.0 070 / 61014.9 4.3
2016-Dec-06 18:51N 43°00' W 070°42'0 0.0 080 / 21015.4 5.2
2016-Dec-06 17:51N 43°00' W 070°42'0 0.0 330 / 41015.7 4.6
2016-Dec-06 16:51N 43°00' W 070°42'0 0.0 340 / 51016.5 4.1
2016-Dec-06 15:52N 43°00' W 070°42'0 0.0 340 / 51017.1 3.6
2016-Dec-06 14:52N 43°00' W 070°42'0 0.0 320 / 61017.3 2.3
2016-Dec-06 13:52N 43°00' W 070°42'0 0.0 290 / 81017.3 1.0
2016-Dec-06 12:52N 43°00' W 070°42'0 0.0 270 / 71017.0 0.3
2016-Dec-06 11:52N 43°00' W 070°42'0 0.0 270 / 51016.8 0.7
2016-Dec-06 10:52N 43°00' W 070°42'0 0.0 280 / 31016.2 1.1
2016-Dec-06 09:52N 43°00' W 070°42'0 0.0 270 / 91015.8 0.8
2016-Dec-06 08:52N 43°00' W 070°42'0 0.0 280 / 91015.4 0.8
2016-Dec-06 07:52N 43°00' W 070°42'0 0.0 260 / 41015.2 -0.1
2016-Dec-06 06:52N 43°00' W 070°42'0 0.0 260 / 51014.5 -0.1
2016-Dec-06 05:52N 43°00' W 070°42'0 0.0 260 / 51013.3 0.2
2016-Dec-06 04:52N 43°00' W 070°42'0 0.0 270 / 51012.8 0.1
2016-Dec-06 03:52N 43°00' W 070°42'0 0.0 270 / 91012.3 0.1
2016-Dec-06 02:52N 43°00' W 070°42'0 0.0 270 / 101011.9 0.2
2016-Dec-06 01:53N 43°00' W 070°42'0 0.0 260 / 71011.5 0.5
2016-Dec-06 00:53N 43°00' W 070°42'0 0.0 270 / 71011.1 0.8
2016-Dec-05 22:53N 43°00' W 070°42'0 0.0 270 / 71010.8 1.2
2016-Dec-05 21:53N 43°00' W 070°42'0 0.0 280 / 41010.8 1.3
2016-Dec-05 20:53N 43°00' W 070°42'0 0.0 290 / 51010.5 0.7
2016-Dec-05 19:53N 43°00' W 070°42'0 0.0 300 / 81010.7 1.4
2016-Dec-05 18:53N 43°00' W 070°42'0 0.0 290 / 81010.3 1.7
2016-Dec-05 17:53N 43°00' W 070°42'0 0.0 280 / 11010.8 1.1
2016-Dec-05 16:53N 43°00' W 070°42'0 0.0 1011.8 0.5
2016-Dec-05 15:53N 43°00' W 070°42'0 0.0 350 / 31013.4 -0.5
2016-Dec-05 14:53N 43°00' W 070°42'0 0.0 320 / 11014.7 -1.2
2016-Dec-05 13:53N 43°00' W 070°42'0 0.0 290 / 41015.6 -1.6
2016-Dec-05 12:54N 43°00' W 070°42'0 0.0 300 / 71016.3 -1.5
2016-Dec-05 11:54N 43°00' W 070°42'0 0.0 310 / 41016.2 -0.5
2016-Dec-05 10:54N 43°00' W 070°42'0 0.0 020 / 41016.3 -1.5
2016-Dec-05 09:54N 43°00' W 070°42'0 0.0 300 / 51017.8 -1.6
2016-Dec-05 08:54N 43°00' W 070°42'0 0.0 330 / 31017.2 -1.8
2016-Dec-05 07:54N 43°00' W 070°42'0 0.0 330 / 21017.9 -1.4
2016-Dec-05 06:54N 43°00' W 070°42'0 0.0 360 / 91017.9 -1.4
2016-Dec-05 05:54N 43°00' W 070°42'0 0.0 310 / 51019.0 -1.1
2016-Dec-05 04:54N 43°00' W 070°42'0 0.0 350 / 51019.0 -1.0
2016-Dec-05 03:54N 43°00' W 070°42'0 0.0 350 / 51019.3 -0.7
2016-Dec-05 02:54N 43°00' W 070°42'0 0.0 330 / 21019.6 -0.4
2016-Dec-05 01:54N 43°00' W 070°42'0 0.0 340 / 41020.5 0.1
2016-Dec-05 00:54N 43°00' W 070°42'0 0.0 320 / 21020.6 0.7
2016-Dec-04 22:55N 43°00' W 070°42'0 0.0 310 / 71019.5 2.3
2016-Dec-04 21:55N 43°00' W 070°42'0 0.0 310 / 101019.1 3.1
2016-Dec-04 20:55N 43°00' W 070°42'0 0.0 300 / 161018.6 3.9
2016-Dec-04 19:55N 43°00' W 070°42'0 0.0 290 / 141018.1 4.4
2016-Dec-04 18:55N 43°00' W 070°42'0 0.0 290 / 141017.9 4.3
2016-Dec-04 17:55N 43°00' W 070°42'0 0.0 290 / 91017.7 4.2
2016-Dec-04 16:55N 43°00' W 070°42'0 0.0 290 / 91018.0 3.5
2016-Dec-04 15:55N 43°00' W 070°42'0 0.0 300 / 91018.5 2.8
2016-Dec-04 14:55N 43°00' W 070°42'0 0.0 320 / 81019.2 1.9
2016-Dec-04 13:55N 43°00' W 070°42'0 0.0 290 / 131018.9 1.2
2016-Dec-04 12:55N 43°00' W 070°42'0 0.0 310 / 71018.5 0.7
2016-Dec-04 11:56N 43°00' W 070°42'0 0.0 300 / 71018.1 0.8
2016-Dec-04 10:56N 43°00' W 070°42'0 0.0 290 / 91017.7 1.3
2016-Dec-04 09:56N 43°00' W 070°42'0 0.0 290 / 71017.3 1.1
2016-Dec-04 08:56N 43°00' W 070°42'0 0.0 300 / 91016.8 1.2
2016-Dec-04 07:56N 43°00' W 070°42'0 0.0 280 / 51016.4 1.5
2016-Dec-04 06:56N 43°00' W 070°42'0 0.0 300 / 101015.7 1.9
2016-Dec-04 05:56N 43°00' W 070°42'0 0.0 310 / 101015.0 2.2
2016-Dec-04 04:56N 43°00' W 070°42'0 0.0 300 / 91014.5 2.7
2016-Dec-04 03:56N 43°00' W 070°42'0 0.0 300 / 81014.3 2.8
2016-Dec-04 02:56N 43°00' W 070°42'0 0.0 300 / 121013.9 2.7
2016-Dec-04 01:56N 43°00' W 070°42'0 0.0 300 / 111013.7 2.9
2016-Dec-04 00:57N 43°00' W 070°42'0 0.0 290 / 141013.5 3.3
2016-Dec-03 22:57N 43°00' W 070°42'0 0.0 290 / 171011.8 4.1
2016-Dec-03 21:57N 43°00' W 070°42'0 0.0 300 / 161010.7 4.6
2016-Dec-03 20:57N 43°00' W 070°42'0 0.0 300 / 211009.4 5.5
2016-Dec-03 19:57N 43°00' W 070°42'0 0.0 320 / 111008.5 6.1
2016-Dec-03 18:57N 43°00' W 070°42'0 0.0 300 / 211007.8 6.3
2016-Dec-03 17:57N 43°00' W 070°42'0 0.0 290 / 191007.5 6.4
2016-Dec-03 16:57N 43°00' W 070°42'0 0.0 290 / 251007.3 6.2
2016-Dec-03 15:57N 43°00' W 070°42'0 0.0 290 / 231007.2 6.0
2016-Dec-03 14:57N 43°00' W 070°42'0 0.0 310 / 121007.3 5.6
2016-Dec-03 13:57N 43°00' W 070°42'0 0.0 280 / 201006.7 4.8
2016-Dec-03 12:57N 43°00' W 070°42'0 0.0 290 / 161006.3 4.1
2016-Dec-03 11:57N 43°00' W 070°42'0 0.0 280 / 141005.8 3.8
2016-Dec-03 10:58N 43°00' W 070°42'0 0.0 280 / 181004.7 4.1
2016-Dec-03 09:58N 43°00' W 070°42'0 0.0 290 / 101004.3 4.1
2016-Dec-03 08:58N 43°00' W 070°42'0 0.0 280 / 141004.0 4.1
2016-Dec-03 07:58N 43°00' W 070°42'0 0.0 290 / 131004.0 3.8
2016-Dec-03 06:58N 43°00' W 070°42'0 0.0 290 / 131004.0 3.9
2016-Dec-03 05:58N 43°00' W 070°42'0 0.0 280 / 91003.5 4.2
2016-Dec-03 04:58N 43°00' W 070°42'0 0.0 280 / 111003.2 4.6
2016-Dec-03 03:58N 43°00' W 070°42'0 0.0 290 / 171002.7 5.3
2016-Dec-03 01:58N 43°00' W 070°42'0 0.0 260 / 71002.8 6.0
2016-Dec-03 00:58N 43°00' W 070°42'0 0.0 230 / 81003.2 6.6
2016-Dec-02 22:57N 43°00' W 070°42'0 0.0 260 / 71003.2 8.0
2016-Dec-02 21:58N 43°00' W 070°42'0 0.0 260 / 81003.0 8.6
2016-Dec-02 20:58N 43°00' W 070°42'0 0.0 270 / 111002.8 9.6
2016-Dec-02 19:58N 43°00' W 070°42'0 0.0 260 / 141002.4 10.3
2016-Dec-02 18:58N 43°00' W 070°42'0 0.0 260 / 101002.3 9.6
2016-Dec-02 17:58N 43°00' W 070°42'0 0.0 270 / 141002.4 9.6
2016-Dec-02 16:58N 43°00' W 070°42'0 0.0 270 / 111003.0 9.2
2016-Dec-02 15:58N 43°00' W 070°42'0 0.0 280 / 91003.5 8.5
2016-Dec-02 14:58N 43°00' W 070°42'0 0.0 280 / 91004.1 7.2
2016-Dec-02 13:58N 43°00' W 070°42'0 0.0 280 / 131004.2 5.5
2016-Dec-02 12:58N 43°00' W 070°42'0 0.0 270 / 91004.4 4.8
2016-Dec-02 11:58N 43°00' W 070°42'0 0.0 250 / 81004.1 4.2
2016-Dec-02 10:58N 43°00' W 070°42'0 0.0 270 / 71003.9 4.4
2016-Dec-02 09:58N 43°00' W 070°42'0 0.0 260 / 71003.2 4.3
2016-Dec-02 08:58N 43°00' W 070°42'0 0.0 280 / 81002.6 4.8
2016-Dec-02 07:59N 43°00' W 070°42'0 0.0 270 / 51002.4 4.9
2016-Dec-02 06:59N 43°00' W 070°42'0 0.0 260 / 81002.1 5.3
2016-Dec-02 05:59N 43°00' W 070°42'0 0.0 230 / 21001.7 5.4
2016-Dec-02 04:59N 43°00' W 070°42'0 0.0 250 / 61000.9 5.9
2016-Dec-02 03:59N 43°00' W 070°42'0 0.0 250 / 61000.4 6.3
2016-Dec-02 02:59N 43°00' W 070°42'0 0.0 250 / 11999.8 6.8
2016-Dec-02 01:59N 43°00' W 070°42'0 0.0 260 / 7999.2 7.3
2016-Dec-02 00:59N 43°00' W 070°42'0 0.0 260 / 10998.9 7.8
2016-Dec-01 22:59N 43°00' W 070°42'0 0.0 260 / 8998.1 8.7
2016-Dec-01 21:59N 43°00' W 070°42'0 0.0 270 / 10997.5 9.7
2016-Dec-01 20:59N 43°00' W 070°42'0 0.0 250 / 13996.6 10.5
2016-Dec-01 19:59N 43°00' W 070°42'0 0.0 270 / 15995.5 12.0
2016-Dec-01 19:00N 43°00' W 070°42'0 0.0 270 / 14994.3 12.6
2016-Dec-01 18:00N 43°00' W 070°42'0 0.0 280 / 13994.1 12.5
2016-Dec-01 12:58N 43°00' W 070°42'0 0.0 300 / 18992.1 8.5
2016-Dec-01 11:58N 43°00' W 070°42'0 0.0 280 / 10992.3 9.7
2016-Dec-01 10:59N 43°00' W 070°42'0 0.0 010 / 3992.6 10.0
2016-Dec-01 09:59N 43°00' W 070°42'0 0.0 060 / 17993.7 9.8
2016-Dec-01 08:59N 43°00' W 070°42'0 0.0 060 / 20996.4 9.5
2016-Dec-01 07:59N 43°00' W 070°42'0 0.0 060 / 15999.6 9.3
2016-Dec-01 06:59N 43°00' W 070°42'0 0.0 070 / 101003.2 9.2
2016-Dec-01 05:59N 43°00' W 070°42'0 0.0 090 / 111004.4 9.1
2016-Dec-01 04:59N 43°00' W 070°42'0 0.0 080 / 141005.1 8.9
2016-Dec-01 03:59N 43°00' W 070°42'0 0.0 070 / 141007.5 8.6
2016-Dec-01 01:59N 43°00' W 070°42'0 0.0 070 / 131010.4 8.2
2016-Dec-01 00:59N 43°00' W 070°42'0 0.0 070 / 141011.6 8.1
2016-Nov-30 22:59N 43°00' W 070°42'0 0.0 050 / 141012.2 7.6
2016-Nov-30 21:59N 43°00' W 070°42'0 0.0 030 / 141013.6 7.0
2016-Nov-30 21:00N 43°00' W 070°42'   040 / 81013.6 7.3
Track history (hours):
 
Tides and Currents Weather Stations Pressure Air Temp Water Temp Dewpoint Dewpoint Depression Visibility Wind Speed Wind Dir Waves Ship Positions

Oceanographic research ship Hassler (USA)

Last reported at 2016-Dec-09 01:46 UTC. Time now 2016-Dec-09 04:04 UTC.
Position N 43°00' W 070°42'.

Length 37 m; draft 3.8 m.

Type: . MMSI: 369970091.

Wind from 270 at 11 knots

Barometer 1006.1 mb
Air temperature 2.6 ° C

Date/timePositionNaut miles runAvg speedWind from/ knotsBaromVisibWave heightAir tempDewpointWater temp
2016-Dec-09 01:46N 43°00' W 070°42'0 0.0 270 / 111006.1 2.6
2016-Dec-09 00:46N 43°00' W 070°42'0 0.0 270 / 91005.8 3.1
2016-Dec-08 22:46N 43°00' W 070°42'0 0.0 270 / 111005.2 4.1
2016-Dec-08 21:46N 43°00' W 070°42'0 0.0 260 / 71005.2 4.7
2016-Dec-08 20:46N 43°00' W 070°42'0 0.0 240 / 81005.2 5.3
2016-Dec-08 19:46N 43°00' W 070°42'0 0.0 270 / 61005.2 5.3
2016-Dec-08 18:46N 43°00' W 070°42'0 0.0 270 / 71005.2 5.5
2016-Dec-08 17:46N 43°00' W 070°42'0 0.0 270 / 51005.8 5.5
2016-Dec-08 16:46N 43°00' W 070°42'0 0.0 250 / 41006.9 5.3
2016-Dec-08 15:46N 43°00' W 070°42'0 0.0 190 / 61008.4 5.0
2016-Dec-08 14:46N 43°00' W 070°42'0 0.0 270 / 31009.7 5.3
2016-Dec-08 13:46N 43°00' W 070°42'0 0.0 290 / 61010.2 2.3
2016-Dec-08 12:47N 43°00' W 070°42'0 0.0 250 / 51010.0 1.6
2016-Dec-08 11:47N 43°00' W 070°42'0 0.0 250 / 31010.5 1.7
2016-Dec-08 10:47N 43°00' W 070°42'0 0.0 260 / 31010.8 1.9
2016-Dec-08 09:47N 43°00' W 070°42'0 0.0 230 / 41010.8 1.5
2016-Dec-08 08:47N 43°00' W 070°42'0 0.0 260 / 51010.8 1.4
2016-Dec-08 07:47N 43°00' W 070°42'0 0.0 260 / 61011.2 1.2
2016-Dec-08 06:47N 43°00' W 070°42'0 0.0 270 / 41011.6 1.0
2016-Dec-08 05:47N 43°00' W 070°42'0 0.0 240 / 71011.9 0.9
2016-Dec-08 04:47N 43°00' W 070°42'0 0.0 240 / 31011.5 1.3
2016-Dec-08 03:47N 43°00' W 070°42'0 0.0 200 / 21012.6 1.7
2016-Dec-08 02:47N 43°00' W 070°42'0 0.0 260 / 31013.1 2.0
2016-Dec-08 01:47N 43°00' W 070°42'0 0.0 280 / 91012.9 2.1
2016-Dec-08 00:47N 43°00' W 070°42'0 0.0 260 / 21012.9 2.5
2016-Dec-07 22:48N 43°00' W 070°42'0 0.0 260 / 31012.6 2.6
2016-Dec-07 21:48N 43°00' W 070°42'0 0.0 270 / 41012.8 2.9
2016-Dec-07 20:48N 43°00' W 070°42'0 0.0 250 / 31012.0 3.0
2016-Dec-07 19:48N 43°00' W 070°42'0 0.0 310 / 21011.7 2.9
2016-Dec-07 18:48N 43°00' W 070°42'0 0.0 290 / 11011.6 2.4
2016-Dec-07 17:48N 43°00' W 070°42'0 0.0 340 / 21012.0 1.7
2016-Dec-07 16:48N 43°00' W 070°42'0 0.0 330 / 31012.5 1.3
2016-Dec-07 15:48N 43°00' W 070°42'0 0.0 310 / 41013.3 0.7
2016-Dec-07 14:48N 43°00' W 070°42'0 0.0 300 / 61013.7 -0.0
2016-Dec-07 13:48N 43°00' W 070°42'0 0.0 310 / 61013.6 -0.5
2016-Dec-07 12:49N 43°00' W 070°42'0 0.0 310 / 71012.9 -0.6
2016-Dec-07 11:49N 43°00' W 070°42'0 0.0 340 / 41012.0 0.5
2016-Dec-07 10:49N 43°00' W 070°42'0 0.0 360 / 81011.8 1.1
2016-Dec-07 09:49N 43°00' W 070°42'0 0.0 360 / 81011.5 1.5
2016-Dec-07 08:49N 43°00' W 070°42'0 0.0 010 / 91011.2 1.9
2016-Dec-07 07:50N 43°00' W 070°42'0 0.0 350 / 91012.1 2.1
2016-Dec-07 06:50N 43°00' W 070°42'0 0.0 360 / 91012.8 2.3
2016-Dec-07 05:50N 43°00' W 070°42'0 0.0 020 / 91012.3 2.2
2016-Dec-07 03:51N 43°00' W 070°42'0 0.0 340 / 41014.0 2.0
2016-Dec-07 02:51N 43°00' W 070°42'0 0.0 340 / 51014.9 2.3
2016-Dec-07 01:51N 43°00' W 070°42'0 0.0 330 / 31014.8 2.8
2016-Dec-07 00:51N 43°00' W 070°42'0 0.0 360 / 61014.4 3.5
2016-Dec-06 22:51N 43°00' W 070°42'0 0.0 030 / 51014.4 4.0
2016-Dec-06 21:51N 43°00' W 070°42'0 0.0 030 / 51014.4 3.7
2016-Dec-06 20:51N 43°00' W 070°42'0 0.0 080 / 41014.9 4.1
2016-Dec-06 19:51N 43°00' W 070°42'0 0.0 070 / 61014.9 4.3
2016-Dec-06 18:51N 43°00' W 070°42'0 0.0 080 / 21015.4 5.2
2016-Dec-06 17:51N 43°00' W 070°42'0 0.0 330 / 41015.7 4.6
2016-Dec-06 16:51N 43°00' W 070°42'0 0.0 340 / 51016.5 4.1
2016-Dec-06 15:52N 43°00' W 070°42'0 0.0 340 / 51017.1 3.6
2016-Dec-06 14:52N 43°00' W 070°42'0 0.0 320 / 61017.3 2.3
2016-Dec-06 13:52N 43°00' W 070°42'0 0.0 290 / 81017.3 1.0
2016-Dec-06 12:52N 43°00' W 070°42'0 0.0 270 / 71017.0 0.3
2016-Dec-06 11:52N 43°00' W 070°42'0 0.0 270 / 51016.8 0.7
2016-Dec-06 10:52N 43°00' W 070°42'0 0.0 280 / 31016.2 1.1
2016-Dec-06 09:52N 43°00' W 070°42'0 0.0 270 / 91015.8 0.8
2016-Dec-06 08:52N 43°00' W 070°42'0 0.0 280 / 91015.4 0.8
2016-Dec-06 07:52N 43°00' W 070°42'0 0.0 260 / 41015.2 -0.1
2016-Dec-06 06:52N 43°00' W 070°42'0 0.0 260 / 51014.5 -0.1
2016-Dec-06 05:52N 43°00' W 070°42'0 0.0 260 / 51013.3 0.2
2016-Dec-06 04:52N 43°00' W 070°42'0 0.0 270 / 51012.8 0.1
2016-Dec-06 03:52N 43°00' W 070°42'0 0.0 270 / 91012.3 0.1
2016-Dec-06 02:52N 43°00' W 070°42'0 0.0 270 / 101011.9 0.2
2016-Dec-06 01:53N 43°00' W 070°42'0 0.0 260 / 71011.5 0.5
2016-Dec-06 00:53N 43°00' W 070°42'0 0.0 270 / 71011.1 0.8
2016-Dec-05 22:53N 43°00' W 070°42'0 0.0 270 / 71010.8 1.2
2016-Dec-05 21:53N 43°00' W 070°42'0 0.0 280 / 41010.8 1.3
2016-Dec-05 20:53N 43°00' W 070°42'0 0.0 290 / 51010.5 0.7
2016-Dec-05 19:53N 43°00' W 070°42'0 0.0 300 / 81010.7 1.4
2016-Dec-05 18:53N 43°00' W 070°42'0 0.0 290 / 81010.3 1.7
2016-Dec-05 17:53N 43°00' W 070°42'0 0.0 280 / 11010.8 1.1
2016-Dec-05 16:53N 43°00' W 070°42'0 0.0 1011.8 0.5
2016-Dec-05 15:53N 43°00' W 070°42'0 0.0 350 / 31013.4 -0.5
2016-Dec-05 14:53N 43°00' W 070°42'0 0.0 320 / 11014.7 -1.2
2016-Dec-05 13:53N 43°00' W 070°42'0 0.0 290 / 41015.6 -1.6
2016-Dec-05 12:54N 43°00' W 070°42'0 0.0 300 / 71016.3 -1.5
2016-Dec-05 11:54N 43°00' W 070°42'0 0.0 310 / 41016.2 -0.5
2016-Dec-05 10:54N 43°00' W 070°42'0 0.0 020 / 41016.3 -1.5
2016-Dec-05 09:54N 43°00' W 070°42'0 0.0 300 / 51017.8 -1.6
2016-Dec-05 08:54N 43°00' W 070°42'0 0.0 330 / 31017.2 -1.8
2016-Dec-05 07:54N 43°00' W 070°42'0 0.0 330 / 21017.9 -1.4
2016-Dec-05 06:54N 43°00' W 070°42'0 0.0 360 / 91017.9 -1.4
2016-Dec-05 05:54N 43°00' W 070°42'0 0.0 310 / 51019.0 -1.1
2016-Dec-05 04:54N 43°00' W 070°42'0 0.0 350 / 51019.0 -1.0
2016-Dec-05 03:54N 43°00' W 070°42'0 0.0 350 / 51019.3 -0.7
2016-Dec-05 02:54N 43°00' W 070°42'0 0.0 330 / 21019.6 -0.4
2016-Dec-05 01:54N 43°00' W 070°42'0 0.0 340 / 41020.5 0.1
2016-Dec-05 00:54N 43°00' W 070°42'0 0.0 320 / 21020.6 0.7
2016-Dec-04 22:55N 43°00' W 070°42'0 0.0 310 / 71019.5 2.3
2016-Dec-04 21:55N 43°00' W 070°42'0 0.0 310 / 101019.1 3.1
2016-Dec-04 20:55N 43°00' W 070°42'0 0.0 300 / 161018.6 3.9
2016-Dec-04 19:55N 43°00' W 070°42'0 0.0 290 / 141018.1 4.4
2016-Dec-04 18:55N 43°00' W 070°42'0 0.0 290 / 141017.9 4.3
2016-Dec-04 17:55N 43°00' W 070°42'0 0.0 290 / 91017.7 4.2
2016-Dec-04 16:55N 43°00' W 070°42'0 0.0 290 / 91018.0 3.5
2016-Dec-04 15:55N 43°00' W 070°42'0 0.0 300 / 91018.5 2.8
2016-Dec-04 14:55N 43°00' W 070°42'0 0.0 320 / 81019.2 1.9
2016-Dec-04 13:55N 43°00' W 070°42'0 0.0 290 / 131018.9 1.2
2016-Dec-04 12:55N 43°00' W 070°42'0 0.0 310 / 71018.5 0.7
2016-Dec-04 11:56N 43°00' W 070°42'0 0.0 300 / 71018.1 0.8
2016-Dec-04 10:56N 43°00' W 070°42'0 0.0 290 / 91017.7 1.3
2016-Dec-04 09:56N 43°00' W 070°42'0 0.0 290 / 71017.3 1.1
2016-Dec-04 08:56N 43°00' W 070°42'0 0.0 300 / 91016.8 1.2
2016-Dec-04 07:56N 43°00' W 070°42'0 0.0 280 / 51016.4 1.5
2016-Dec-04 06:56N 43°00' W 070°42'0 0.0 300 / 101015.7 1.9
2016-Dec-04 05:56N 43°00' W 070°42'0 0.0 310 / 101015.0 2.2
2016-Dec-04 04:56N 43°00' W 070°42'0 0.0 300 / 91014.5 2.7
2016-Dec-04 03:56N 43°00' W 070°42'0 0.0 300 / 81014.3 2.8
2016-Dec-04 02:56N 43°00' W 070°42'0 0.0 300 / 121013.9 2.7
2016-Dec-04 01:56N 43°00' W 070°42'0 0.0 300 / 111013.7 2.9
2016-Dec-04 00:57N 43°00' W 070°42'0 0.0 290 / 141013.5 3.3
2016-Dec-03 22:57N 43°00' W 070°42'0 0.0 290 / 171011.8 4.1
2016-Dec-03 21:57N 43°00' W 070°42'0 0.0 300 / 161010.7 4.6
2016-Dec-03 20:57N 43°00' W 070°42'0 0.0 300 / 211009.4 5.5
2016-Dec-03 19:57N 43°00' W 070°42'0 0.0 320 / 111008.5 6.1
2016-Dec-03 18:57N 43°00' W 070°42'0 0.0 300 / 211007.8 6.3
2016-Dec-03 17:57N 43°00' W 070°42'0 0.0 290 / 191007.5 6.4
2016-Dec-03 16:57N 43°00' W 070°42'0 0.0 290 / 251007.3 6.2
2016-Dec-03 15:57N 43°00' W 070°42'0 0.0 290 / 231007.2 6.0
2016-Dec-03 14:57N 43°00' W 070°42'0 0.0 310 / 121007.3 5.6
2016-Dec-03 13:57N 43°00' W 070°42'0 0.0 280 / 201006.7 4.8
2016-Dec-03 12:57N 43°00' W 070°42'0 0.0 290 / 161006.3 4.1
2016-Dec-03 11:57N 43°00' W 070°42'0 0.0 280 / 141005.8 3.8
2016-Dec-03 10:58N 43°00' W 070°42'0 0.0 280 / 181004.7 4.1
2016-Dec-03 09:58N 43°00' W 070°42'0 0.0 290 / 101004.3 4.1
2016-Dec-03 08:58N 43°00' W 070°42'0 0.0 280 / 141004.0 4.1
2016-Dec-03 07:58N 43°00' W 070°42'0 0.0 290 / 131004.0 3.8
2016-Dec-03 06:58N 43°00' W 070°42'0 0.0 290 / 131004.0 3.9
2016-Dec-03 05:58N 43°00' W 070°42'0 0.0 280 / 91003.5 4.2
2016-Dec-03 04:58N 43°00' W 070°42'0 0.0 280 / 111003.2 4.6
2016-Dec-03 03:58N 43°00' W 070°42'0 0.0 290 / 171002.7 5.3
2016-Dec-03 01:58N 43°00' W 070°42'0 0.0 260 / 71002.8 6.0
2016-Dec-03 00:58N 43°00' W 070°42'0 0.0 230 / 81003.2 6.6
2016-Dec-02 22:57N 43°00' W 070°42'0 0.0 260 / 71003.2 8.0
2016-Dec-02 21:58N 43°00' W 070°42'0 0.0 260 / 81003.0 8.6
2016-Dec-02 20:58N 43°00' W 070°42'0 0.0 270 / 111002.8 9.6
2016-Dec-02 19:58N 43°00' W 070°42'0 0.0 260 / 141002.4 10.3
2016-Dec-02 18:58N 43°00' W 070°42'0 0.0 260 / 101002.3 9.6
2016-Dec-02 17:58N 43°00' W 070°42'0 0.0 270 / 141002.4 9.6
2016-Dec-02 16:58N 43°00' W 070°42'0 0.0 270 / 111003.0 9.2
2016-Dec-02 15:58N 43°00' W 070°42'0 0.0 280 / 91003.5 8.5
2016-Dec-02 14:58N 43°00' W 070°42'0 0.0 280 / 91004.1 7.2
2016-Dec-02 13:58N 43°00' W 070°42'0 0.0 280 / 131004.2 5.5
2016-Dec-02 12:58N 43°00' W 070°42'0 0.0 270 / 91004.4 4.8
2016-Dec-02 11:58N 43°00' W 070°42'0 0.0 250 / 81004.1 4.2
2016-Dec-02 10:58N 43°00' W 070°42'0 0.0 270 / 71003.9 4.4
2016-Dec-02 09:58N 43°00' W 070°42'0 0.0 260 / 71003.2 4.3
2016-Dec-02 08:58N 43°00' W 070°42'0 0.0 280 / 81002.6 4.8
2016-Dec-02 07:59N 43°00' W 070°42'0 0.0 270 / 51002.4 4.9
2016-Dec-02 06:59N 43°00' W 070°42'0 0.0 260 / 81002.1 5.3
2016-Dec-02 05:59N 43°00' W 070°42'0 0.0 230 / 21001.7 5.4
2016-Dec-02 04:59N 43°00' W 070°42'0 0.0 250 / 61000.9 5.9
2016-Dec-02 03:59N 43°00' W 070°42'0 0.0 250 / 61000.4 6.3
2016-Dec-02 02:59N 43°00' W 070°42'0 0.0 250 / 11999.8 6.8
2016-Dec-02 01:59N 43°00' W 070°42'0 0.0 260 / 7999.2 7.3
2016-Dec-02 00:59N 43°00' W 070°42'0 0.0 260 / 10998.9 7.8
2016-Dec-01 22:59N 43°00' W 070°42'0 0.0 260 / 8998.1 8.7
2016-Dec-01 21:59N 43°00' W 070°42'0 0.0 270 / 10997.5 9.7
2016-Dec-01 20:59N 43°00' W 070°42'0 0.0 250 / 13996.6 10.5
2016-Dec-01 19:59N 43°00' W 070°42'0 0.0 270 / 15995.5 12.0
2016-Dec-01 19:00N 43°00' W 070°42'0 0.0 270 / 14994.3 12.6
2016-Dec-01 18:00N 43°00' W 070°42'0 0.0 280 / 13994.1 12.5
2016-Dec-01 12:58N 43°00' W 070°42'0 0.0 300 / 18992.1 8.5
2016-Dec-01 11:58N 43°00' W 070°42'0 0.0 280 / 10992.3 9.7
2016-Dec-01 10:59N 43°00' W 070°42'0 0.0 010 / 3992.6 10.0
2016-Dec-01 09:59N 43°00' W 070°42'0 0.0 060 / 17993.7 9.8
2016-Dec-01 08:59N 43°00' W 070°42'0 0.0 060 / 20996.4 9.5
2016-Dec-01 07:59N 43°00' W 070°42'0 0.0 060 / 15999.6 9.3
2016-Dec-01 06:59N 43°00' W 070°42'0 0.0 070 / 101003.2 9.2
2016-Dec-01 05:59N 43°00' W 070°42'0 0.0 090 / 111004.4 9.1
2016-Dec-01 04:59N 43°00' W 070°42'0 0.0 080 / 141005.1 8.9
2016-Dec-01 03:59N 43°00' W 070°42'0 0.0 070 / 141007.5 8.6
2016-Dec-01 01:59N 43°00' W 070°42'0 0.0 070 / 131010.4 8.2
2016-Dec-01 00:59N 43°00' W 070°42'0 0.0 070 / 141011.6 8.1
2016-Nov-30 22:59N 43°00' W 070°42'0 0.0 050 / 141012.2 7.6
2016-Nov-30 21:59N 43°00' W 070°42'0 0.0 030 / 141013.6 7.0
2016-Nov-30 21:00N 43°00' W 070°42'   040 / 81013.6 7.3

Dump ship's entire track history